sensor_id;sensor_type;location;lat;lon;timestamp;P1;durP1;ratioP1;P2;durP2;ratioP2
70715;SDS011;59053;50.832;12.882;2023-02-21T00:02:37;5.07;;;2.10;;
70715;SDS011;59053;50.832;12.882;2023-02-21T00:05:21;4.28;;;1.90;;
70715;SDS011;59053;50.832;12.882;2023-02-21T00:08:05;6.05;;;2.20;;
70715;SDS011;59053;50.832;12.882;2023-02-21T00:10:51;7.38;;;2.10;;
70715;SDS011;59053;50.832;12.882;2023-02-21T00:17:08;4.43;;;2.10;;
70715;SDS011;59053;50.832;12.882;2023-02-21T00:23:01;5.82;;;2.20;;
70715;SDS011;59053;50.832;12.882;2023-02-21T00:29:48;5.17;;;2.10;;
70715;SDS011;59053;50.832;12.882;2023-02-21T00:35:54;7.03;;;2.70;;
70715;SDS011;59053;50.832;12.882;2023-02-21T00:38:38;5.40;;;2.35;;
70715;SDS011;59053;50.832;12.882;2023-02-21T00:44:17;5.03;;;1.90;;
70715;SDS011;59053;50.832;12.882;2023-02-21T00:50:35;5.97;;;2.20;;
70715;SDS011;59053;50.832;12.882;2023-02-21T00:53:22;4.22;;;1.67;;
70715;SDS011;59053;50.832;12.882;2023-02-21T00:56:07;6.90;;;2.38;;
70715;SDS011;59053;50.832;12.882;2023-02-21T00:58:52;4.47;;;2.00;;
70715;SDS011;59053;50.832;12.882;2023-02-21T01:01:36;4.95;;;1.80;;
70715;SDS011;59053;50.832;12.882;2023-02-21T01:04:20;4.45;;;1.95;;
70715;SDS011;59053;50.832;12.882;2023-02-21T01:07:05;4.90;;;2.20;;
70715;SDS011;59053;50.832;12.882;2023-02-21T01:09:49;5.47;;;2.10;;
70715;SDS011;59053;50.832;12.882;2023-02-21T01:19:47;3.78;;;1.85;;
70715;SDS011;59053;50.832;12.882;2023-02-21T01:22:45;6.22;;;2.00;;
70715;SDS011;59053;50.832;12.882;2023-02-21T01:25:32;4.82;;;1.70;;
70715;SDS011;59053;50.832;12.882;2023-02-21T01:28:16;2.93;;;1.50;;
70715;SDS011;59053;50.832;12.882;2023-02-21T01:31:01;4.03;;;1.73;;
70715;SDS011;59053;50.832;12.882;2023-02-21T01:33:45;5.78;;;1.73;;
70715;SDS011;59053;50.832;12.882;2023-02-21T01:36:29;4.03;;;1.70;;
70715;SDS011;59053;50.832;12.882;2023-02-21T01:39:13;4.43;;;1.80;;
70715;SDS011;59053;50.832;12.882;2023-02-21T01:48:11;3.95;;;1.88;;
70715;SDS011;59053;50.832;12.882;2023-02-21T01:50:58;4.40;;;2.10;;
70715;SDS011;59053;50.832;12.882;2023-02-21T01:53:42;5.03;;;1.90;;
70715;SDS011;59053;50.832;12.882;2023-02-21T01:56:33;4.63;;;1.83;;
70715;SDS011;59053;50.832;12.882;2023-02-21T01:59:18;4.32;;;2.00;;
70715;SDS011;59053;50.832;12.882;2023-02-21T02:05:25;6.03;;;2.40;;
70715;SDS011;59053;50.832;12.882;2023-02-21T02:08:10;5.13;;;2.22;;
70715;SDS011;59053;50.832;12.882;2023-02-21T02:11:03;6.77;;;2.53;;
70715;SDS011;59053;50.832;12.882;2023-02-21T02:14:11;5.32;;;2.10;;
70715;SDS011;59053;50.832;12.882;2023-02-21T02:16:54;5.32;;;2.60;;
70715;SDS011;59053;50.832;12.882;2023-02-21T02:19:38;4.93;;;2.33;;
70715;SDS011;59053;50.832;12.882;2023-02-21T02:22:31;6.07;;;2.40;;
70715;SDS011;59053;50.832;12.882;2023-02-21T02:40:08;5.13;;;2.40;;
70715;SDS011;59053;50.832;12.882;2023-02-21T02:42:43;4.80;;;2.30;;
70715;SDS011;59053;50.832;12.882;2023-02-21T02:57:59;4.05;;;1.83;;
70715;SDS011;59053;50.832;12.882;2023-02-21T03:10:22;4.90;;;2.00;;
70715;SDS011;59053;50.832;12.882;2023-02-21T03:13:11;5.10;;;1.80;;
70715;SDS011;59053;50.832;12.882;2023-02-21T03:16:03;4.15;;;1.90;;
70715;SDS011;59053;50.832;12.882;2023-02-21T03:18:53;4.82;;;1.80;;
70715;SDS011;59053;50.832;12.882;2023-02-21T03:21:24;4.95;;;1.90;;
70715;SDS011;59053;50.832;12.882;2023-02-21T03:23:52;5.57;;;1.87;;
70715;SDS011;59053;50.832;12.882;2023-02-21T03:26:19;4.85;;;1.85;;
70715;SDS011;59053;50.832;12.882;2023-02-21T03:28:47;4.50;;;2.00;;
70715;SDS011;59053;50.832;12.882;2023-02-21T03:31:15;5.90;;;2.10;;
70715;SDS011;59053;50.832;12.882;2023-02-21T03:33:42;4.97;;;2.10;;
70715;SDS011;59053;50.832;12.882;2023-02-21T03:36:08;5.30;;;2.20;;
70715;SDS011;59053;50.832;12.882;2023-02-21T03:42:02;3.67;;;1.55;;
70715;SDS011;59053;50.832;12.882;2023-02-21T03:44:40;5.10;;;1.88;;
70715;SDS011;59053;50.832;12.882;2023-02-21T03:47:08;4.32;;;1.70;;
70715;SDS011;59053;50.832;12.882;2023-02-21T03:49:33;4.97;;;1.90;;
70715;SDS011;59053;50.832;12.882;2023-02-21T03:54:58;4.00;;;1.67;;
70715;SDS011;59053;50.832;12.882;2023-02-21T03:57:24;4.40;;;2.00;;
70715;SDS011;59053;50.832;12.882;2023-02-21T04:02:40;4.05;;;1.73;;
70715;SDS011;59053;50.832;12.882;2023-02-21T04:05:06;4.60;;;1.90;;
70715;SDS011;59053;50.832;12.882;2023-02-21T04:07:34;4.90;;;1.80;;
70715;SDS011;59053;50.832;12.882;2023-02-21T04:10:06;5.80;;;1.90;;
70715;SDS011;59053;50.832;12.882;2023-02-21T04:12:38;5.30;;;1.77;;
70715;SDS011;59053;50.832;12.882;2023-02-21T04:15:15;3.97;;;1.83;;
70715;SDS011;59053;50.832;12.882;2023-02-21T04:21:03;4.60;;;2.00;;
70715;SDS011;59053;50.832;12.882;2023-02-21T04:26:18;4.30;;;1.95;;
70715;SDS011;59053;50.832;12.882;2023-02-21T04:28:51;4.32;;;2.00;;
70715;SDS011;59053;50.832;12.882;2023-02-21T04:31:33;5.40;;;2.30;;
70715;SDS011;59053;50.832;12.882;2023-02-21T04:37:03;6.87;;;2.30;;
70715;SDS011;59053;50.832;12.882;2023-02-21T04:39:40;7.22;;;2.70;;
70715;SDS011;59053;50.832;12.882;2023-02-21T04:45:05;6.10;;;2.30;;
70715;SDS011;59053;50.832;12.882;2023-02-21T04:50:24;6.95;;;2.70;;
70715;SDS011;59053;50.832;12.882;2023-02-21T04:52:51;8.45;;;3.00;;
70715;SDS011;59053;50.832;12.882;2023-02-21T04:55:24;8.18;;;3.00;;
70715;SDS011;59053;50.832;12.882;2023-02-21T05:03:31;7.63;;;2.60;;
70715;SDS011;59053;50.832;12.882;2023-02-21T05:05:57;9.63;;;2.90;;
70715;SDS011;59053;50.832;12.882;2023-02-21T05:08:22;5.03;;;2.25;;
70715;SDS011;59053;50.832;12.882;2023-02-21T05:10:48;6.40;;;2.63;;
70715;SDS011;59053;50.832;12.882;2023-02-21T05:17:01;6.30;;;2.40;;
70715;SDS011;59053;50.832;12.882;2023-02-21T05:19:41;6.85;;;2.65;;
70715;SDS011;59053;50.832;12.882;2023-02-21T05:22:08;7.67;;;2.97;;
70715;SDS011;59053;50.832;12.882;2023-02-21T05:24:33;7.25;;;2.95;;
70715;SDS011;59053;50.832;12.882;2023-02-21T05:26:59;7.63;;;3.10;;
70715;SDS011;59053;50.832;12.882;2023-02-21T05:29:24;7.83;;;3.00;;
70715;SDS011;59053;50.832;12.882;2023-02-21T05:31:50;6.53;;;2.47;;
70715;SDS011;59053;50.832;12.882;2023-02-21T05:34:15;7.55;;;3.00;;
70715;SDS011;59053;50.832;12.882;2023-02-21T05:36:43;7.57;;;2.87;;
70715;SDS011;59053;50.832;12.882;2023-02-21T05:39:09;7.97;;;3.15;;
70715;SDS011;59053;50.832;12.882;2023-02-21T05:41:36;8.30;;;3.00;;
70715;SDS011;59053;50.832;12.882;2023-02-21T05:44:02;8.70;;;3.30;;
70715;SDS011;59053;50.832;12.882;2023-02-21T05:46:32;7.80;;;3.00;;
70715;SDS011;59053;50.832;12.882;2023-02-21T05:48:58;7.77;;;2.83;;
70715;SDS011;59053;50.832;12.882;2023-02-21T05:51:25;7.80;;;3.08;;
70715;SDS011;59053;50.832;12.882;2023-02-21T05:53:51;7.55;;;3.03;;
70715;SDS011;59053;50.832;12.882;2023-02-21T05:56:17;7.83;;;2.90;;
70715;SDS011;59053;50.832;12.882;2023-02-21T05:58:44;10.55;;;3.33;;
70715;SDS011;59053;50.832;12.882;2023-02-21T06:01:10;7.13;;;2.97;;
70715;SDS011;59053;50.832;12.882;2023-02-21T06:03:36;7.15;;;2.90;;
70715;SDS011;59053;50.832;12.882;2023-02-21T06:06:02;6.68;;;2.60;;
70715;SDS011;59053;50.832;12.882;2023-02-21T06:08:27;7.70;;;2.50;;
70715;SDS011;59053;50.832;12.882;2023-02-21T06:10:53;8.33;;;3.13;;
70715;SDS011;59053;50.832;12.882;2023-02-21T06:13:18;6.43;;;2.65;;
70715;SDS011;59053;50.832;12.882;2023-02-21T06:15:43;7.53;;;2.70;;
70715;SDS011;59053;50.832;12.882;2023-02-21T06:18:11;7.27;;;2.80;;
70715;SDS011;59053;50.832;12.882;2023-02-21T06:20:40;5.47;;;2.55;;
70715;SDS011;59053;50.832;12.882;2023-02-21T06:23:09;7.38;;;2.90;;
70715;SDS011;59053;50.832;12.882;2023-02-21T06:25:34;6.13;;;2.63;;
70715;SDS011;59053;50.832;12.882;2023-02-21T06:30:45;9.02;;;3.20;;
70715;SDS011;59053;50.832;12.882;2023-02-21T06:36:07;9.32;;;3.22;;
70715;SDS011;59053;50.832;12.882;2023-02-21T06:38:38;8.23;;;3.50;;
70715;SDS011;59053;50.832;12.882;2023-02-21T06:41:05;8.80;;;3.20;;
70715;SDS011;59053;50.832;12.882;2023-02-21T06:43:31;10.00;;;3.28;;
70715;SDS011;59053;50.832;12.882;2023-02-21T06:45:56;8.70;;;3.60;;
70715;SDS011;59053;50.832;12.882;2023-02-21T06:48:22;10.20;;;3.37;;
70715;SDS011;59053;50.832;12.882;2023-02-21T06:50:59;7.70;;;3.08;;
70715;SDS011;59053;50.832;12.882;2023-02-21T06:53:48;7.73;;;3.20;;
70715;SDS011;59053;50.832;12.882;2023-02-21T06:56:14;8.73;;;3.40;;
70715;SDS011;59053;50.832;12.882;2023-02-21T06:58:41;8.97;;;3.23;;
70715;SDS011;59053;50.832;12.882;2023-02-21T07:01:07;10.02;;;3.80;;
70715;SDS011;59053;50.832;12.882;2023-02-21T07:03:32;8.90;;;3.50;;
70715;SDS011;59053;50.832;12.882;2023-02-21T07:05:58;8.00;;;3.43;;
70715;SDS011;59053;50.832;12.882;2023-02-21T07:08:23;8.40;;;3.37;;
70715;SDS011;59053;50.832;12.882;2023-02-21T07:10:50;9.18;;;3.40;;
70715;SDS011;59053;50.832;12.882;2023-02-21T07:13:15;11.07;;;3.60;;
70715;SDS011;59053;50.832;12.882;2023-02-21T07:15:41;9.30;;;3.50;;
70715;SDS011;59053;50.832;12.882;2023-02-21T07:18:07;9.40;;;3.55;;
70715;SDS011;59053;50.832;12.882;2023-02-21T07:20:32;8.23;;;3.40;;
70715;SDS011;59053;50.832;12.882;2023-02-21T07:22:59;10.80;;;3.67;;
70715;SDS011;59053;50.832;12.882;2023-02-21T07:25:24;10.83;;;4.03;;
70715;SDS011;59053;50.832;12.882;2023-02-21T07:27:50;10.00;;;3.73;;
70715;SDS011;59053;50.832;12.882;2023-02-21T07:30:16;7.40;;;3.25;;
70715;SDS011;59053;50.832;12.882;2023-02-21T07:32:42;10.63;;;3.70;;
70715;SDS011;59053;50.832;12.882;2023-02-21T07:35:08;9.05;;;3.17;;
70715;SDS011;59053;50.832;12.882;2023-02-21T07:37:33;9.73;;;3.87;;
70715;SDS011;59053;50.832;12.882;2023-02-21T07:39:59;10.40;;;3.90;;
70715;SDS011;59053;50.832;12.882;2023-02-21T07:42:26;11.07;;;3.90;;
70715;SDS011;59053;50.832;12.882;2023-02-21T07:44:55;11.05;;;4.32;;
70715;SDS011;59053;50.832;12.882;2023-02-21T07:47:21;10.23;;;4.92;;
70715;SDS011;59053;50.832;12.882;2023-02-21T07:49:47;13.60;;;4.47;;
70715;SDS011;59053;50.832;12.882;2023-02-21T07:55:10;10.73;;;4.23;;
70715;SDS011;59053;50.832;12.882;2023-02-21T07:57:38;11.93;;;4.38;;
70715;SDS011;59053;50.832;12.882;2023-02-21T08:00:03;13.77;;;4.57;;
70715;SDS011;59053;50.832;12.882;2023-02-21T08:02:38;10.20;;;4.68;;
70715;SDS011;59053;50.832;12.882;2023-02-21T08:05:07;11.50;;;4.70;;
70715;SDS011;59053;50.832;12.882;2023-02-21T08:07:33;11.88;;;4.60;;
70715;SDS011;59053;50.832;12.882;2023-02-21T08:09:58;11.90;;;4.30;;
70715;SDS011;59053;50.832;12.882;2023-02-21T08:12:23;8.73;;;3.73;;
70715;SDS011;59053;50.832;12.882;2023-02-21T08:14:49;10.23;;;4.13;;
70715;SDS011;59053;50.832;12.882;2023-02-21T08:17:14;9.67;;;3.80;;
70715;SDS011;59053;50.832;12.882;2023-02-21T08:19:40;11.20;;;3.93;;
70715;SDS011;59053;50.832;12.882;2023-02-21T08:22:05;9.80;;;4.20;;
70715;SDS011;59053;50.832;12.882;2023-02-21T08:24:30;11.13;;;4.00;;
70715;SDS011;59053;50.832;12.882;2023-02-21T08:26:56;11.03;;;4.30;;
70715;SDS011;59053;50.832;12.882;2023-02-21T08:29:21;12.03;;;4.40;;
70715;SDS011;59053;50.832;12.882;2023-02-21T08:31:47;10.27;;;3.17;;
70715;SDS011;59053;50.832;12.882;2023-02-21T08:34:13;10.15;;;4.00;;
70715;SDS011;59053;50.832;12.882;2023-02-21T08:36:39;10.73;;;4.40;;
70715;SDS011;59053;50.832;12.882;2023-02-21T08:39:06;11.13;;;4.22;;
70715;SDS011;59053;50.832;12.882;2023-02-21T08:41:42;12.23;;;3.95;;
70715;SDS011;59053;50.832;12.882;2023-02-21T08:44:13;10.40;;;3.60;;
70715;SDS011;59053;50.832;12.882;2023-02-21T08:46:40;15.63;;;4.00;;
70715;SDS011;59053;50.832;12.882;2023-02-21T08:49:06;10.93;;;4.00;;
70715;SDS011;59053;50.832;12.882;2023-02-21T08:51:32;9.43;;;3.50;;
70715;SDS011;59053;50.832;12.882;2023-02-21T08:53:58;8.77;;;3.40;;
70715;SDS011;59053;50.832;12.882;2023-02-21T08:56:24;11.27;;;4.05;;
70715;SDS011;59053;50.832;12.882;2023-02-21T08:58:50;8.80;;;3.40;;
70715;SDS011;59053;50.832;12.882;2023-02-21T09:01:20;11.43;;;4.30;;
70715;SDS011;59053;50.832;12.882;2023-02-21T09:03:46;10.27;;;3.72;;
70715;SDS011;59053;50.832;12.882;2023-02-21T09:06:12;13.57;;;4.07;;
70715;SDS011;59053;50.832;12.882;2023-02-21T09:08:37;11.70;;;4.00;;
70715;SDS011;59053;50.832;12.882;2023-02-21T09:11:08;10.97;;;4.33;;
70715;SDS011;59053;50.832;12.882;2023-02-21T09:13:34;10.30;;;4.35;;
70715;SDS011;59053;50.832;12.882;2023-02-21T09:16:00;10.87;;;4.50;;
70715;SDS011;59053;50.832;12.882;2023-02-21T09:18:29;11.20;;;4.25;;
70715;SDS011;59053;50.832;12.882;2023-02-21T09:21:01;9.77;;;4.13;;
70715;SDS011;59053;50.832;12.882;2023-02-21T09:23:27;13.75;;;3.70;;
70715;SDS011;59053;50.832;12.882;2023-02-21T09:25:53;11.35;;;4.00;;
70715;SDS011;59053;50.832;12.882;2023-02-21T09:28:19;10.30;;;3.90;;
70715;SDS011;59053;50.832;12.882;2023-02-21T09:30:45;7.60;;;3.30;;
70715;SDS011;59053;50.832;12.882;2023-02-21T09:33:10;8.10;;;3.45;;
70715;SDS011;59053;50.832;12.882;2023-02-21T09:35:36;10.13;;;3.93;;
70715;SDS011;59053;50.832;12.882;2023-02-21T09:38:02;9.53;;;3.97;;
70715;SDS011;59053;50.832;12.882;2023-02-21T09:43:27;14.73;;;3.97;;
70715;SDS011;59053;50.832;12.882;2023-02-21T09:45:53;9.75;;;3.83;;
70715;SDS011;59053;50.832;12.882;2023-02-21T09:48:20;8.80;;;3.58;;
70715;SDS011;59053;50.832;12.882;2023-02-21T09:50:48;8.27;;;3.63;;
70715;SDS011;59053;50.832;12.882;2023-02-21T09:53:18;9.38;;;3.75;;
70715;SDS011;59053;50.832;12.882;2023-02-21T09:55:47;8.32;;;3.20;;
70715;SDS011;59053;50.832;12.882;2023-02-21T09:58:14;8.90;;;3.50;;
70715;SDS011;59053;50.832;12.882;2023-02-21T10:00:43;7.18;;;2.90;;
70715;SDS011;59053;50.832;12.882;2023-02-21T10:08:59;7.50;;;2.90;;
70715;SDS011;59053;50.832;12.882;2023-02-21T10:11:40;7.40;;;3.15;;
70715;SDS011;59053;50.832;12.882;2023-02-21T10:19:56;8.13;;;3.22;;
70715;SDS011;59053;50.832;12.882;2023-02-21T10:22:26;6.75;;;2.63;;
70715;SDS011;59053;50.832;12.882;2023-02-21T10:24:53;8.63;;;2.60;;
70715;SDS011;59053;50.832;12.882;2023-02-21T10:27:19;6.57;;;2.40;;
70715;SDS011;59053;50.832;12.882;2023-02-21T10:32:25;6.85;;;3.00;;
70715;SDS011;59053;50.832;12.882;2023-02-21T10:34:51;7.25;;;2.42;;
70715;SDS011;59053;50.832;12.882;2023-02-21T10:39:54;6.00;;;2.40;;
70715;SDS011;59053;50.832;12.882;2023-02-21T10:42:25;5.80;;;2.50;;
70715;SDS011;59053;50.832;12.882;2023-02-21T10:44:54;7.97;;;2.50;;
70715;SDS011;59053;50.832;12.882;2023-02-21T10:48:03;4.80;;;2.10;;
70715;SDS011;59053;50.832;12.882;2023-02-21T10:53:21;5.93;;;2.25;;
70715;SDS011;59053;50.832;12.882;2023-02-21T10:56:05;6.63;;;2.33;;
70715;SDS011;59053;50.832;12.882;2023-02-21T10:58:34;7.60;;;2.58;;
70715;SDS011;59053;50.832;12.882;2023-02-21T11:01:10;6.17;;;2.20;;
70715;SDS011;59053;50.832;12.882;2023-02-21T11:03:36;5.80;;;2.08;;
70715;SDS011;59053;50.832;12.882;2023-02-21T11:06:32;5.93;;;1.92;;
70715;SDS011;59053;50.832;12.882;2023-02-21T11:09:00;7.00;;;2.13;;
70715;SDS011;59053;50.832;12.882;2023-02-21T11:11:33;5.18;;;1.92;;
70715;SDS011;59053;50.832;12.882;2023-02-21T11:14:06;4.73;;;1.90;;
70715;SDS011;59053;50.832;12.882;2023-02-21T11:16:43;4.25;;;1.90;;
70715;SDS011;59053;50.832;12.882;2023-02-21T11:19:10;5.07;;;1.90;;
70715;SDS011;59053;50.832;12.882;2023-02-21T11:21:37;4.97;;;2.00;;
70715;SDS011;59053;50.832;12.882;2023-02-21T11:24:03;4.63;;;1.98;;
70715;SDS011;59053;50.832;12.882;2023-02-21T11:26:30;4.63;;;1.80;;
70715;SDS011;59053;50.832;12.882;2023-02-21T11:29:15;4.38;;;1.92;;
70715;SDS011;59053;50.832;12.882;2023-02-21T11:31:45;4.95;;;2.30;;
70715;SDS011;59053;50.832;12.882;2023-02-21T11:34:11;5.50;;;2.10;;
70715;SDS011;59053;50.832;12.882;2023-02-21T11:36:38;7.03;;;2.38;;
70715;SDS011;59053;50.832;12.882;2023-02-21T11:39:24;7.70;;;3.38;;
70715;SDS011;59053;50.832;12.882;2023-02-21T11:41:57;5.63;;;2.10;;
70715;SDS011;59053;50.832;12.882;2023-02-21T11:44:31;5.43;;;2.30;;
70715;SDS011;59053;50.832;12.882;2023-02-21T11:47:16;9.63;;;2.87;;
70715;SDS011;59053;50.832;12.882;2023-02-21T11:55:13;8.93;;;3.20;;
70715;SDS011;59053;50.832;12.882;2023-02-21T12:02:52;5.78;;;2.20;;
70715;SDS011;59053;50.832;12.882;2023-02-21T12:05:37;6.90;;;2.70;;
70715;SDS011;59053;50.832;12.882;2023-02-21T12:08:16;5.95;;;2.50;;
70715;SDS011;59053;50.832;12.882;2023-02-21T12:13:35;4.40;;;1.83;;
70715;SDS011;59053;50.832;12.882;2023-02-21T12:16:34;6.68;;;2.83;;
70715;SDS011;59053;50.832;12.882;2023-02-21T12:29:53;6.20;;;2.28;;
70715;SDS011;59053;50.832;12.882;2023-02-21T12:48:53;8.98;;;2.47;;
70715;SDS011;59053;50.832;12.882;2023-02-21T12:51:27;8.48;;;3.13;;
70715;SDS011;59053;50.832;12.882;2023-02-21T12:56:40;7.95;;;2.70;;
70715;SDS011;59053;50.832;12.882;2023-02-21T12:59:17;5.95;;;2.45;;
70715;SDS011;59053;50.832;12.882;2023-02-21T13:01:47;8.73;;;2.95;;
70715;SDS011;59053;50.832;12.882;2023-02-21T13:04:27;9.23;;;3.60;;
70715;SDS011;59053;50.832;12.882;2023-02-21T13:07:07;8.03;;;3.20;;
70715;SDS011;59053;50.832;12.882;2023-02-21T13:28:26;9.27;;;3.40;;
70715;SDS011;59053;50.832;12.882;2023-02-21T13:31:19;8.70;;;3.47;;
70715;SDS011;59053;50.832;12.882;2023-02-21T13:34:07;6.95;;;3.10;;
70715;SDS011;59053;50.832;12.882;2023-02-21T13:36:41;7.67;;;3.03;;
70715;SDS011;59053;50.832;12.882;2023-02-21T13:41:34;6.63;;;2.90;;
70715;SDS011;59053;50.832;12.882;2023-02-21T13:44:11;7.30;;;3.17;;
70715;SDS011;59053;50.832;12.882;2023-02-21T13:52:24;10.15;;;2.70;;
70715;SDS011;59053;50.832;12.882;2023-02-21T13:57:42;7.75;;;2.92;;
70715;SDS011;59053;50.832;12.882;2023-02-21T14:08:11;7.75;;;2.80;;
70715;SDS011;59053;50.832;12.882;2023-02-21T14:11:01;6.28;;;2.90;;
70715;SDS011;59053;50.832;12.882;2023-02-21T14:16:32;8.03;;;3.00;;
70715;SDS011;59053;50.832;12.882;2023-02-21T14:19:09;6.85;;;2.92;;
70715;SDS011;59053;50.832;12.882;2023-02-21T14:21:39;7.75;;;3.03;;
70715;SDS011;59053;50.832;12.882;2023-02-21T14:29:29;6.60;;;2.70;;
70715;SDS011;59053;50.832;12.882;2023-02-21T14:34:49;5.07;;;2.45;;
70715;SDS011;59053;50.832;12.882;2023-02-21T14:45:33;6.55;;;2.60;;
70715;SDS011;59053;50.832;12.882;2023-02-21T14:48:14;7.95;;;2.80;;
70715;SDS011;59053;50.832;12.882;2023-02-21T14:53:36;7.38;;;2.70;;
70715;SDS011;59053;50.832;12.882;2023-02-21T15:05:12;5.85;;;2.83;;
70715;SDS011;59053;50.832;12.882;2023-02-21T15:10:18;7.10;;;2.30;;
70715;SDS011;59053;50.832;12.882;2023-02-21T15:12:55;5.25;;;2.40;;
70715;SDS011;59053;50.832;12.882;2023-02-21T15:15:39;7.95;;;2.47;;
70715;SDS011;59053;50.832;12.882;2023-02-21T15:18:28;5.50;;;2.50;;
70715;SDS011;59053;50.832;12.882;2023-02-21T15:23:43;4.83;;;2.30;;
70715;SDS011;59053;50.832;12.882;2023-02-21T15:26:18;5.88;;;2.30;;
70715;SDS011;59053;50.832;12.882;2023-02-21T15:29:05;5.95;;;2.45;;
70715;SDS011;59053;50.832;12.882;2023-02-21T15:31:38;5.68;;;2.50;;
70715;SDS011;59053;50.832;12.882;2023-02-21T15:34:12;5.93;;;2.65;;
70715;SDS011;59053;50.832;12.882;2023-02-21T15:36:47;5.67;;;2.17;;
70715;SDS011;59053;50.832;12.882;2023-02-21T15:39:21;5.95;;;2.40;;
70715;SDS011;59053;50.832;12.882;2023-02-21T15:41:52;7.20;;;2.70;;
70715;SDS011;59053;50.832;12.882;2023-02-21T15:44:25;9.38;;;2.70;;
70715;SDS011;59053;50.832;12.882;2023-02-21T15:46:56;6.55;;;2.70;;
70715;SDS011;59053;50.832;12.882;2023-02-21T15:49:28;4.80;;;1.93;;
70715;SDS011;59053;50.832;12.882;2023-02-21T15:51:55;5.88;;;2.40;;
70715;SDS011;59053;50.832;12.882;2023-02-21T15:59:33;5.82;;;2.70;;
70715;SDS011;59053;50.832;12.882;2023-02-21T16:04:38;6.47;;;2.50;;
70715;SDS011;59053;50.832;12.882;2023-02-21T16:09:58;6.00;;;2.80;;
70715;SDS011;59053;50.832;12.882;2023-02-21T16:12:29;8.17;;;3.00;;
70715;SDS011;59053;50.832;12.882;2023-02-21T16:17:52;4.50;;;1.87;;
70715;SDS011;59053;50.832;12.882;2023-02-21T16:20:31;6.57;;;2.70;;
70715;SDS011;59053;50.832;12.882;2023-02-21T16:28:58;7.43;;;2.90;;
70715;SDS011;59053;50.832;12.882;2023-02-21T16:31:27;6.93;;;2.50;;
70715;SDS011;59053;50.832;12.882;2023-02-21T16:34:02;6.28;;;2.92;;
70715;SDS011;59053;50.832;12.882;2023-02-21T16:36:29;7.32;;;2.35;;
70715;SDS011;59053;50.832;12.882;2023-02-21T16:39:01;6.20;;;2.70;;
70715;SDS011;59053;50.832;12.882;2023-02-21T16:41:26;6.60;;;2.50;;
70715;SDS011;59053;50.832;12.882;2023-02-21T16:43:52;7.17;;;2.90;;
70715;SDS011;59053;50.832;12.882;2023-02-21T16:46:32;6.10;;;2.70;;
70715;SDS011;59053;50.832;12.882;2023-02-21T16:51:52;5.38;;;2.40;;
70715;SDS011;59053;50.832;12.882;2023-02-21T16:54:38;5.90;;;2.43;;
70715;SDS011;59053;50.832;12.882;2023-02-21T17:00:22;7.07;;;2.90;;
70715;SDS011;59053;50.832;12.882;2023-02-21T17:02:48;8.27;;;2.90;;
70715;SDS011;59053;50.832;12.882;2023-02-21T17:05:14;7.68;;;3.00;;
70715;SDS011;59053;50.832;12.882;2023-02-21T17:07:40;7.27;;;3.40;;
70715;SDS011;59053;50.832;12.882;2023-02-21T17:10:06;8.85;;;3.20;;
70715;SDS011;59053;50.832;12.882;2023-02-21T17:12:33;7.80;;;3.30;;
70715;SDS011;59053;50.832;12.882;2023-02-21T17:14:59;7.50;;;3.28;;
70715;SDS011;59053;50.832;12.882;2023-02-21T17:17:24;7.87;;;3.50;;
70715;SDS011;59053;50.832;12.882;2023-02-21T17:19:50;9.43;;;3.40;;
70715;SDS011;59053;50.832;12.882;2023-02-21T17:22:22;8.07;;;3.50;;
70715;SDS011;59053;50.832;12.882;2023-02-21T17:24:48;10.32;;;3.47;;
70715;SDS011;59053;50.832;12.882;2023-02-21T17:27:17;8.47;;;3.17;;
70715;SDS011;59053;50.832;12.882;2023-02-21T17:29:48;7.72;;;3.20;;
70715;SDS011;59053;50.832;12.882;2023-02-21T17:32:16;8.82;;;3.40;;
70715;SDS011;59053;50.832;12.882;2023-02-21T17:34:42;9.37;;;3.70;;
70715;SDS011;59053;50.832;12.882;2023-02-21T17:37:07;8.20;;;3.40;;
70715;SDS011;59053;50.832;12.882;2023-02-21T17:39:34;7.67;;;3.50;;
70715;SDS011;59053;50.832;12.882;2023-02-21T17:41:59;8.43;;;3.38;;
70715;SDS011;59053;50.832;12.882;2023-02-21T17:47:51;8.48;;;3.50;;
70715;SDS011;59053;50.832;12.882;2023-02-21T17:50:19;9.30;;;3.90;;
70715;SDS011;59053;50.832;12.882;2023-02-21T17:52:44;9.20;;;4.00;;
70715;SDS011;59053;50.832;12.882;2023-02-21T17:55:10;10.67;;;4.53;;
70715;SDS011;59053;50.832;12.882;2023-02-21T17:57:41;9.43;;;3.97;;
70715;SDS011;59053;50.832;12.882;2023-02-21T18:00:08;8.57;;;3.67;;
70715;SDS011;59053;50.832;12.882;2023-02-21T18:02:37;9.68;;;4.38;;
70715;SDS011;59053;50.832;12.882;2023-02-21T18:05:05;17.83;;;6.40;;
70715;SDS011;59053;50.832;12.882;2023-02-21T18:07:32;14.30;;;6.00;;
70715;SDS011;59053;50.832;12.882;2023-02-21T18:09:59;9.30;;;4.07;;
70715;SDS011;59053;50.832;12.882;2023-02-21T18:12:28;10.75;;;3.80;;
70715;SDS011;59053;50.832;12.882;2023-02-21T18:14:54;8.75;;;3.70;;
70715;SDS011;59053;50.832;12.882;2023-02-21T18:17:29;8.50;;;3.70;;
70715;SDS011;59053;50.832;12.882;2023-02-21T18:19:54;10.32;;;4.10;;
70715;SDS011;59053;50.832;12.882;2023-02-21T18:22:20;9.97;;;4.20;;
70715;SDS011;59053;50.832;12.882;2023-02-21T18:24:45;10.03;;;4.43;;
70715;SDS011;59053;50.832;12.882;2023-02-21T18:27:11;9.65;;;4.47;;
70715;SDS011;59053;50.832;12.882;2023-02-21T18:29:43;11.03;;;4.97;;
70715;SDS011;59053;50.832;12.882;2023-02-21T18:32:12;11.60;;;4.78;;
70715;SDS011;59053;50.832;12.882;2023-02-21T18:34:38;12.23;;;4.67;;
70715;SDS011;59053;50.832;12.882;2023-02-21T18:37:04;10.02;;;4.72;;
70715;SDS011;59053;50.832;12.882;2023-02-21T18:39:29;10.57;;;4.80;;
70715;SDS011;59053;50.832;12.882;2023-02-21T18:41:56;11.15;;;4.95;;
70715;SDS011;59053;50.832;12.882;2023-02-21T18:44:21;14.27;;;5.17;;
70715;SDS011;59053;50.832;12.882;2023-02-21T18:46:53;11.98;;;5.15;;
70715;SDS011;59053;50.832;12.882;2023-02-21T18:49:20;11.07;;;5.13;;
70715;SDS011;59053;50.832;12.882;2023-02-21T18:51:46;12.25;;;5.50;;
70715;SDS011;59053;50.832;12.882;2023-02-21T18:54:15;11.93;;;4.93;;
70715;SDS011;59053;50.832;12.882;2023-02-21T18:56:44;11.02;;;5.03;;
70715;SDS011;59053;50.832;12.882;2023-02-21T18:59:13;11.77;;;5.00;;
70715;SDS011;59053;50.832;12.882;2023-02-21T19:01:53;12.13;;;5.55;;
70715;SDS011;59053;50.832;12.882;2023-02-21T19:04:19;12.02;;;4.85;;
70715;SDS011;59053;50.832;12.882;2023-02-21T19:06:51;15.07;;;5.32;;
70715;SDS011;59053;50.832;12.882;2023-02-21T19:09:17;13.23;;;6.15;;
70715;SDS011;59053;50.832;12.882;2023-02-21T19:11:42;10.77;;;4.53;;
70715;SDS011;59053;50.832;12.882;2023-02-21T19:16:55;11.20;;;5.05;;
70715;SDS011;59053;50.832;12.882;2023-02-21T19:19:20;11.20;;;4.50;;
70715;SDS011;59053;50.832;12.882;2023-02-21T19:21:47;10.15;;;3.97;;
70715;SDS011;59053;50.832;12.882;2023-02-21T19:24:12;8.70;;;3.67;;
70715;SDS011;59053;50.832;12.882;2023-02-21T19:26:41;10.13;;;4.00;;
70715;SDS011;59053;50.832;12.882;2023-02-21T19:29:07;9.63;;;4.28;;
70715;SDS011;59053;50.832;12.882;2023-02-21T19:31:33;11.03;;;4.33;;
70715;SDS011;59053;50.832;12.882;2023-02-21T19:33:59;9.85;;;4.20;;
70715;SDS011;59053;50.832;12.882;2023-02-21T19:36:25;9.60;;;4.27;;
70715;SDS011;59053;50.832;12.882;2023-02-21T19:38:50;11.88;;;4.75;;
70715;SDS011;59053;50.832;12.882;2023-02-21T19:41:15;9.37;;;4.30;;
70715;SDS011;59053;50.832;12.882;2023-02-21T19:43:42;7.72;;;3.83;;
70715;SDS011;59053;50.832;12.882;2023-02-21T19:46:17;9.87;;;4.07;;